createdAt,value
2022-10-04T00:00:25.198Z,8.77
2022-10-04T00:02:51.522Z,8.73
2022-10-04T00:05:18.102Z,8.75
2022-10-04T00:07:45.605Z,8.75
2022-10-04T00:10:19.789Z,8.76
2022-10-04T00:12:52.505Z,8.79
2022-10-04T00:15:19.013Z,9.06
2022-10-04T00:17:45.326Z,8.98
2022-10-04T00:20:30.719Z,8.91
2022-10-04T00:23:15.644Z,8.96
2022-10-04T00:25:41.950Z,8.97
2022-10-04T00:28:20.917Z,8.94
2022-10-04T00:31:05.742Z,9.02
2022-10-04T00:33:38.398Z,9.09
2022-10-04T00:36:26.454Z,9.21
2022-10-04T00:39:04.967Z,9.21
2022-10-04T00:41:35.179Z,9.18
2022-10-04T00:44:01.512Z,9.26
2022-10-04T00:46:27.935Z,9.39
2022-10-04T00:48:55.275Z,9.27
2022-10-04T00:51:21.565Z,9.32
2022-10-04T00:53:50.268Z,9.22
2022-10-04T00:56:27.464Z,9.33
2022-10-04T00:58:59.910Z,9.33
2022-10-04T01:01:26.647Z,9.38
2022-10-04T01:03:53.062Z,9.20
2022-10-04T01:06:19.368Z,9.22
2022-10-04T01:08:47.719Z,9.10
2022-10-04T01:11:15.425Z,9.18
2022-10-04T01:14:01.953Z,9.18
2022-10-04T01:16:28.906Z,9.24
2022-10-04T01:18:55.973Z,9.21
2022-10-04T01:21:27.195Z,9.23
2022-10-04T01:23:53.737Z,9.29
2022-10-04T01:26:35.306Z,9.22
2022-10-04T01:29:07.666Z,9.22
2022-10-04T01:31:34.642Z,9.18
2022-10-04T01:34:01.316Z,9.23
2022-10-04T01:36:27.854Z,9.23
2022-10-04T01:38:54.238Z,9.20
2022-10-04T01:41:21.700Z,9.26
2022-10-04T01:43:49.757Z,9.15
2022-10-04T01:46:26.015Z,9.08
2022-10-04T01:48:52.371Z,9.01
2022-10-04T01:51:25.920Z,8.97
2022-10-04T01:53:55.021Z,9.00
2022-10-04T01:56:27.945Z,9.05
2022-10-04T01:58:58.503Z,9.00
2022-10-04T02:01:31.197Z,8.89
2022-10-04T02:04:12.237Z,8.97
2022-10-04T02:06:39.101Z,8.86
2022-10-04T02:09:09.154Z,8.81
2022-10-04T02:11:37.561Z,8.86
2022-10-04T02:14:05.474Z,8.85
2022-10-04T02:16:32.054Z,8.84
2022-10-04T02:18:58.403Z,8.93
2022-10-04T02:21:24.736Z,8.97
2022-10-04T02:23:51.322Z,8.97
2022-10-04T02:26:17.695Z,9.04
2022-10-04T02:28:44.012Z,9.01
2022-10-04T02:31:29.277Z,9.14
2022-10-04T02:33:56.721Z,9.14
2022-10-04T02:36:26.620Z,9.11
2022-10-04T02:39:00.582Z,9.24
2022-10-04T02:41:35.692Z,9.24
2022-10-04T02:44:15.812Z,9.23
2022-10-04T02:46:45.218Z,9.09
2022-10-04T02:49:31.951Z,9.07
2022-10-04T02:52:01.542Z,8.99
2022-10-04T02:54:29.783Z,8.83
2022-10-04T02:56:56.196Z,8.77
2022-10-04T02:59:22.544Z,8.79
2022-10-04T03:01:58.707Z,8.92
2022-10-04T03:04:32.117Z,9.13
2022-10-04T03:06:59.274Z,9.30
2022-10-04T03:09:29.642Z,9.45
2022-10-04T03:11:56.963Z,9.47
2022-10-04T03:14:23.982Z,9.42
2022-10-04T03:16:50.995Z,9.44
2022-10-04T03:19:17.664Z,9.44
2022-10-04T03:21:44.807Z,9.41
2022-10-04T03:24:12.293Z,9.47
2022-10-04T03:26:39.375Z,9.52
2022-10-04T03:29:07.328Z,9.53
2022-10-04T03:31:33.667Z,9.44
2022-10-04T03:34:00.028Z,9.42
2022-10-04T03:36:26.437Z,9.44
2022-10-04T03:38:53.297Z,9.36
2022-10-04T03:41:19.909Z,9.41
2022-10-04T03:43:46.647Z,9.34
2022-10-04T03:46:13.013Z,9.30
2022-10-04T03:48:41.444Z,9.30
2022-10-04T03:51:07.890Z,9.39
2022-10-04T03:53:36.400Z,9.37
2022-10-04T03:56:04.528Z,9.55
2022-10-04T03:58:31.060Z,9.57
2022-10-04T04:00:57.730Z,9.61
2022-10-04T04:03:24.157Z,9.67
2022-10-04T04:05:51.897Z,9.67
2022-10-04T04:08:38.438Z,9.62
2022-10-04T04:11:05.120Z,9.68
2022-10-04T04:13:42.551Z,9.68
2022-10-04T04:16:08.930Z,9.70
2022-10-04T04:18:35.765Z,9.65
2022-10-04T04:21:02.483Z,9.57
2022-10-04T04:23:39.427Z,9.61
2022-10-04T04:26:14.516Z,9.69
2022-10-04T04:28:42.274Z,9.63
2022-10-04T04:31:10.203Z,9.60
2022-10-04T04:33:41.442Z,9.61
2022-10-04T04:36:11.151Z,9.58
2022-10-04T04:38:57.431Z,9.51
2022-10-04T04:41:24.176Z,9.52
2022-10-04T04:43:50.482Z,9.54
2022-10-04T04:46:27.147Z,9.41
2022-10-04T04:48:56.147Z,9.39
2022-10-04T04:51:22.790Z,9.39
2022-10-04T04:53:49.090Z,9.44
2022-10-04T04:56:19.149Z,9.53
2022-10-04T04:58:46.609Z,9.56
2022-10-04T05:01:18.596Z,9.51
2022-10-04T05:03:44.970Z,9.62
2022-10-04T05:06:24.732Z,9.52
2022-10-04T05:08:51.066Z,9.62
2022-10-04T05:11:17.761Z,9.63
2022-10-04T05:13:47.329Z,9.60
2022-10-04T05:16:32.222Z,9.67
2022-10-04T05:19:02.436Z,9.61
2022-10-04T05:21:29.694Z,9.55
2022-10-04T05:23:57.438Z,9.54
2022-10-04T05:26:25.053Z,9.53
2022-10-04T05:28:51.363Z,9.44
2022-10-04T05:31:28.857Z,9.35
2022-10-04T05:33:57.077Z,9.23
2022-10-04T05:36:32.669Z,9.22
2022-10-04T05:39:05.385Z,9.14
2022-10-04T05:41:34.417Z,9.22
2022-10-04T05:44:02.316Z,9.21
2022-10-04T05:46:28.884Z,9.23
2022-10-04T05:48:55.965Z,9.33
2022-10-04T05:51:23.264Z,9.24
2022-10-04T05:53:50.007Z,9.23
2022-10-04T05:56:16.331Z,9.23
2022-10-04T05:58:58.306Z,9.27
2022-10-04T06:01:30.748Z,9.31
2022-10-04T06:04:03.095Z,9.26
2022-10-04T06:06:29.375Z,9.25
2022-10-04T06:09:04.867Z,9.37
2022-10-04T06:11:40.542Z,9.29
2022-10-04T06:14:16.147Z,9.37
2022-10-04T06:16:49.086Z,9.47
2022-10-04T06:19:33.696Z,9.47
2022-10-04T06:22:01.590Z,9.44
2022-10-04T06:24:29.350Z,9.50
2022-10-04T06:27:08.952Z,9.35
2022-10-04T06:29:38.051Z,9.47
2022-10-04T06:32:04.351Z,9.64
2022-10-04T06:34:30.633Z,9.76
2022-10-04T06:37:15.911Z,9.90
2022-10-04T06:39:49.383Z,10.07
2022-10-04T06:42:16.003Z,10.18
2022-10-04T06:45:00.921Z,10.26
2022-10-04T06:47:27.454Z,10.33
2022-10-04T06:49:56.664Z,10.40
2022-10-04T06:52:28.987Z,10.47
2022-10-04T06:55:03.760Z,10.46
2022-10-04T06:57:53.423Z,10.53
2022-10-04T07:00:23.338Z,10.52
2022-10-04T07:02:49.666Z,10.55
2022-10-04T07:05:30.309Z,10.20
2022-10-04T07:08:07.652Z,9.97
2022-10-04T07:10:51.118Z,10.01
2022-10-04T07:13:31.211Z,9.90
2022-10-04T07:16:02.056Z,9.80
2022-10-04T07:18:40.640Z,9.81
2022-10-04T07:21:08.563Z,9.82
2022-10-04T07:23:53.882Z,9.88
2022-10-04T07:26:23.323Z,9.91
2022-10-04T07:29:08.368Z,9.94
2022-10-04T07:31:35.296Z,10.05
2022-10-04T07:34:02.433Z,10.12
2022-10-04T07:36:47.660Z,10.30
2022-10-04T07:39:14.841Z,10.35
2022-10-04T07:41:46.466Z,10.48
2022-10-04T07:44:16.058Z,10.54
2022-10-04T07:46:42.408Z,10.73
2022-10-04T07:49:19.217Z,10.78
2022-10-04T07:52:03.365Z,10.88
2022-10-04T07:54:40.157Z,11.07
2022-10-04T07:57:09.659Z,11.13
2022-10-04T07:59:38.938Z,11.08
2022-10-04T08:02:13.431Z,11.03
2022-10-04T08:04:39.819Z,10.97
2022-10-04T08:07:13.389Z,11.09
2022-10-04T08:09:39.675Z,11.27
2022-10-04T08:12:06.000Z,11.33
2022-10-04T08:14:43.706Z,11.51
2022-10-04T08:17:15.418Z,11.65
2022-10-04T08:19:51.456Z,11.80
2022-10-04T08:22:30.120Z,11.93
2022-10-04T08:25:11.520Z,12.16
2022-10-04T08:28:09.074Z,12.26
2022-10-04T08:30:58.747Z,12.32
2022-10-04T08:33:37.031Z,12.11
2022-10-04T08:36:11.695Z,12.14
2022-10-04T08:38:46.719Z,12.25
2022-10-04T08:41:20.162Z,12.23
2022-10-04T08:44:05.640Z,12.23
2022-10-04T08:46:53.113Z,12.42
2022-10-04T08:49:19.544Z,12.54
2022-10-04T08:52:05.944Z,12.74
2022-10-04T08:54:38.278Z,12.72
2022-10-04T08:57:17.749Z,12.60
2022-10-04T08:59:51.088Z,12.76
2022-10-04T09:02:25.835Z,12.57
2022-10-04T09:04:59.147Z,12.51
2022-10-04T09:07:44.501Z,12.51
2022-10-04T09:10:24.231Z,12.72
2022-10-04T09:12:57.541Z,12.73
2022-10-04T09:15:27.080Z,12.62
2022-10-04T09:17:54.634Z,12.53
2022-10-04T09:20:38.202Z,12.69
2022-10-04T09:23:08.434Z,12.71
2022-10-04T09:25:40.894Z,12.54
2022-10-04T09:28:26.082Z,12.85
2022-10-04T09:31:11.576Z,13.10
2022-10-04T09:33:56.668Z,13.24
2022-10-04T09:36:41.336Z,13.32
2022-10-04T09:39:32.508Z,13.38
2022-10-04T09:42:17.376Z,13.51
2022-10-04T09:44:49.818Z,13.44
2022-10-04T09:47:37.968Z,13.52
2022-10-04T09:50:04.794Z,13.69
2022-10-04T09:52:41.129Z,13.84
2022-10-04T09:55:07.941Z,13.89
2022-10-04T09:57:53.503Z,13.65
2022-10-04T10:00:24.458Z,13.65
2022-10-04T10:02:55.009Z,13.69
2022-10-04T10:05:39.893Z,13.78
2022-10-04T10:08:06.248Z,13.96
2022-10-04T10:10:55.137Z,13.81
2022-10-04T10:13:40.370Z,14.01
2022-10-04T10:16:12.231Z,14.15
2022-10-04T10:18:48.478Z,14.31
2022-10-04T10:21:33.566Z,14.37
2022-10-04T10:24:06.065Z,14.41
2022-10-04T10:26:36.989Z,14.54
2022-10-04T10:29:06.305Z,14.80
2022-10-04T10:31:48.193Z,14.76
2022-10-04T10:34:17.365Z,14.82
2022-10-04T10:37:02.713Z,14.96
2022-10-04T10:39:44.489Z,14.97
2022-10-04T10:42:31.046Z,15.03
2022-10-04T10:45:15.348Z,15.37
2022-10-04T10:47:56.163Z,15.49
2022-10-04T10:50:58.365Z,15.55
2022-10-04T10:53:36.930Z,15.80
2022-10-04T10:56:21.533Z,15.40
2022-10-04T10:59:06.767Z,15.76
2022-10-04T11:01:42.258Z,16.10
2022-10-04T11:04:14.736Z,16.25
2022-10-04T11:06:59.955Z,16.24
2022-10-04T11:09:27.154Z,16.32
2022-10-04T11:12:12.389Z,16.52
2022-10-04T11:14:47.496Z,16.67
2022-10-04T11:17:32.551Z,16.76
2022-10-04T11:20:17.710Z,16.70
2022-10-04T11:23:06.379Z,16.16
2022-10-04T11:25:35.051Z,16.45
2022-10-04T11:28:20.278Z,16.24
2022-10-04T11:30:52.676Z,16.51
2022-10-04T11:33:24.418Z,16.63
2022-10-04T11:36:12.691Z,16.59
2022-10-04T11:38:54.348Z,16.45
2022-10-04T11:41:42.677Z,16.54
2022-10-04T11:44:15.877Z,16.84
2022-10-04T11:46:46.109Z,17.02
2022-10-04T11:49:16.038Z,17.12
2022-10-04T11:52:02.412Z,17.12
2022-10-04T11:54:47.974Z,17.47
2022-10-04T11:57:15.862Z,17.55
2022-10-04T11:59:45.091Z,17.19
2022-10-04T12:02:34.883Z,17.11
2022-10-04T12:05:04.459Z,17.79
2022-10-04T12:07:50.469Z,17.30
2022-10-04T12:10:35.686Z,17.16
2022-10-04T12:13:11.284Z,17.51
2022-10-04T12:15:41.322Z,17.45
2022-10-04T12:18:27.201Z,17.20
2022-10-04T12:21:02.754Z,17.26
2022-10-04T12:23:29.582Z,17.44
2022-10-04T12:26:13.611Z,17.40
2022-10-04T12:28:51.908Z,17.53
2022-10-04T12:31:26.279Z,17.37
2022-10-04T12:34:01.980Z,17.49
2022-10-04T12:36:34.484Z,17.82
2022-10-04T12:39:09.514Z,17.85
2022-10-04T12:41:35.813Z,17.52
2022-10-04T12:44:02.287Z,17.26
2022-10-04T12:46:41.705Z,17.35
2022-10-04T12:49:25.732Z,17.74
2022-10-04T12:52:04.320Z,17.89
2022-10-04T12:54:42.604Z,17.98
2022-10-04T12:57:24.416Z,18.02
2022-10-04T12:59:53.094Z,17.91
2022-10-04T13:02:28.725Z,18.52
2022-10-04T13:04:55.582Z,18.79
2022-10-04T13:07:34.283Z,18.48
2022-10-04T13:10:24.553Z,18.63
2022-10-04T13:12:52.782Z,18.48
2022-10-04T13:15:22.965Z,18.37
2022-10-04T13:17:52.644Z,18.33
2022-10-04T13:20:25.980Z,18.72
2022-10-04T13:22:57.671Z,18.57
2022-10-04T13:25:30.886Z,18.56
2022-10-04T13:28:02.414Z,18.57
2022-10-04T13:30:32.344Z,18.67
2022-10-04T13:32:58.625Z,18.92
2022-10-04T13:35:26.270Z,18.96
2022-10-04T13:37:58.374Z,18.76
2022-10-04T13:40:36.843Z,18.61
2022-10-04T13:43:12.301Z,18.36
2022-10-04T13:45:53.920Z,18.92
2022-10-04T13:48:31.047Z,19.02
2022-10-04T13:51:16.406Z,18.98
2022-10-04T13:54:04.573Z,18.91
2022-10-04T13:56:49.643Z,19.21
2022-10-04T13:59:33.702Z,19.19
2022-10-04T14:02:21.170Z,19.20
2022-10-04T14:05:15.905Z,18.85
2022-10-04T14:07:58.333Z,18.86
2022-10-04T14:10:36.740Z,19.15
2022-10-04T14:13:11.068Z,18.90
2022-10-04T14:15:38.120Z,18.76
2022-10-04T14:18:27.289Z,18.86
2022-10-04T14:21:18.992Z,18.78
2022-10-04T14:23:54.487Z,18.89
2022-10-04T14:26:32.616Z,18.56
2022-10-04T14:28:58.933Z,18.21
2022-10-04T14:31:25.288Z,17.97
2022-10-04T14:34:06.301Z,17.75
2022-10-04T14:36:41.940Z,17.33
2022-10-04T14:39:20.506Z,17.32
2022-10-04T14:42:05.681Z,17.05
2022-10-04T14:44:55.095Z,16.64
2022-10-04T14:47:22.467Z,16.50
2022-10-04T14:50:01.200Z,16.36
2022-10-04T14:52:39.814Z,16.05
2022-10-04T14:55:27.033Z,15.88
2022-10-04T14:58:02.735Z,15.94
2022-10-04T15:00:47.486Z,15.91
2022-10-04T15:03:29.265Z,15.94
2022-10-04T15:05:59.996Z,15.91
2022-10-04T15:08:35.394Z,16.05
2022-10-04T15:11:08.088Z,16.03
2022-10-04T15:13:34.419Z,16.01
2022-10-04T15:16:11.480Z,15.54
2022-10-04T15:19:19.282Z,15.32
2022-10-04T15:21:45.627Z,15.26
2022-10-04T15:24:11.959Z,15.11
2022-10-04T15:27:00.621Z,15.24
2022-10-04T15:29:37.581Z,15.08
2022-10-04T15:32:16.542Z,15.00
2022-10-04T15:34:46.867Z,14.56
2022-10-04T15:37:13.170Z,14.53
2022-10-04T15:39:39.447Z,14.80
2022-10-04T15:42:11.822Z,15.00
2022-10-04T15:44:57.034Z,15.06
2022-10-04T15:47:30.942Z,15.05
2022-10-04T15:50:00.619Z,14.65
2022-10-04T15:52:39.182Z,14.40
2022-10-04T15:55:23.989Z,14.12
2022-10-04T15:57:53.403Z,13.78
2022-10-04T16:00:23.285Z,13.73
2022-10-04T16:02:59.045Z,13.54
2022-10-04T16:05:36.512Z,13.67
2022-10-04T16:08:08.977Z,13.56
2022-10-04T16:10:56.027Z,13.32
2022-10-04T16:13:35.248Z,13.25
2022-10-04T16:16:17.533Z,13.25
2022-10-04T16:18:51.271Z,13.20
2022-10-04T16:21:26.489Z,13.06
2022-10-04T16:24:11.709Z,12.97
2022-10-04T16:26:41.002Z,12.95
2022-10-04T16:29:27.999Z,12.97
2022-10-04T16:31:57.196Z,12.81
2022-10-04T16:34:42.826Z,12.75
2022-10-04T16:37:17.371Z,13.02
2022-10-04T16:39:59.111Z,12.89
2022-10-04T16:42:44.272Z,12.61
2022-10-04T16:45:10.631Z,12.46
2022-10-04T16:47:50.584Z,12.44
2022-10-04T16:50:36.879Z,12.43
2022-10-04T16:53:19.245Z,12.39
2022-10-04T16:55:45.631Z,12.27
2022-10-04T16:58:27.316Z,12.22
2022-10-04T17:01:12.693Z,12.11
2022-10-04T17:03:39.965Z,12.16
2022-10-04T17:06:13.384Z,12.06
2022-10-04T17:08:47.648Z,11.95
2022-10-04T17:11:27.308Z,11.95
2022-10-04T17:13:56.904Z,11.90
2022-10-04T17:16:39.668Z,11.72
2022-10-04T17:19:15.983Z,11.86
2022-10-04T17:21:54.543Z,11.79
2022-10-04T17:24:20.877Z,11.71
2022-10-04T17:26:50.175Z,11.78
2022-10-04T17:29:21.773Z,11.66
2022-10-04T17:31:48.195Z,11.93
2022-10-04T17:34:21.665Z,11.91
2022-10-04T17:36:49.527Z,11.74
2022-10-04T17:39:15.819Z,11.64
2022-10-04T17:41:50.642Z,11.74
2022-10-04T17:44:20.090Z,11.55
2022-10-04T17:46:58.129Z,11.57
2022-10-04T17:49:49.149Z,11.50
2022-10-04T17:52:39.035Z,11.59
2022-10-04T17:55:16.344Z,11.59
2022-10-04T17:57:47.273Z,11.45
2022-10-04T18:00:15.602Z,11.57
2022-10-04T18:03:00.878Z,11.36
2022-10-04T18:05:28.939Z,11.36
2022-10-04T18:08:07.573Z,11.33
2022-10-04T18:10:33.881Z,11.30
2022-10-04T18:13:19.152Z,11.18
2022-10-04T18:16:08.998Z,11.31
2022-10-04T18:18:42.005Z,11.32
2022-10-04T18:21:22.145Z,11.34
2022-10-04T18:23:55.689Z,11.30
2022-10-04T18:26:23.657Z,11.22
2022-10-04T18:28:50.659Z,11.17
2022-10-04T18:31:29.350Z,11.30
2022-10-04T18:33:56.547Z,11.22
2022-10-04T18:36:31.938Z,11.09
2022-10-04T18:39:00.669Z,10.87
2022-10-04T18:41:46.975Z,10.85
2022-10-04T18:44:14.444Z,10.68
2022-10-04T18:46:41.126Z,10.60
2022-10-04T18:49:16.912Z,10.63
2022-10-04T18:52:02.452Z,10.72
2022-10-04T18:54:47.196Z,10.60
2022-10-04T18:57:13.600Z,10.98
2022-10-04T19:00:01.647Z,10.90
2022-10-04T19:02:40.247Z,10.88
2022-10-04T19:05:06.637Z,10.71
2022-10-04T19:07:35.717Z,10.59
2022-10-04T19:10:08.242Z,10.46
2022-10-04T19:12:41.733Z,10.65
2022-10-04T19:15:28.120Z,10.57
2022-10-04T19:18:13.290Z,10.46
2022-10-04T19:20:40.691Z,10.42
2022-10-04T19:23:17.465Z,10.48
2022-10-04T19:26:03.071Z,10.33
2022-10-04T19:28:32.491Z,10.46
2022-10-04T19:30:58.805Z,10.73
2022-10-04T19:33:25.115Z,10.84
2022-10-04T19:35:57.458Z,10.95
2022-10-04T19:38:32.968Z,10.77
2022-10-04T19:41:04.578Z,10.86
2022-10-04T19:43:44.784Z,10.92
2022-10-04T19:46:26.798Z,10.79
2022-10-04T19:48:53.481Z,10.60
2022-10-04T19:51:33.799Z,10.77
2022-10-04T19:54:03.781Z,10.74
2022-10-04T19:56:31.543Z,10.92
2022-10-04T19:59:04.680Z,10.76
2022-10-04T20:01:31.097Z,11.11
2022-10-04T20:04:29.896Z,11.28
2022-10-04T20:06:57.013Z,11.10
2022-10-04T20:09:23.335Z,11.08
2022-10-04T20:11:51.798Z,11.09
2022-10-04T20:14:19.750Z,11.12
2022-10-04T20:16:46.376Z,11.17
2022-10-04T20:19:18.240Z,11.40
2022-10-04T20:21:44.730Z,11.59
2022-10-04T20:24:30.306Z,11.84
2022-10-04T20:27:01.193Z,11.90
2022-10-04T20:29:36.700Z,11.74
2022-10-04T20:32:04.134Z,11.42
2022-10-04T20:38:07.632Z,10.83
2022-10-04T20:40:45.302Z,11.09
2022-10-04T20:43:14.907Z,11.42
2022-10-04T20:45:44.704Z,11.40
2022-10-04T20:48:32.207Z,11.32
2022-10-04T20:51:06.104Z,11.10
2022-10-04T20:53:32.618Z,11.28
2022-10-04T20:56:11.679Z,11.33
2022-10-04T20:58:38.209Z,11.42
2022-10-04T21:01:16.910Z,11.33
2022-10-04T21:03:43.491Z,11.43
2022-10-04T21:06:10.318Z,11.54
2022-10-04T21:08:36.911Z,11.69
2022-10-04T21:11:07.667Z,11.70
2022-10-04T21:13:43.691Z,11.62
2022-10-04T21:16:10.129Z,11.64
2022-10-04T21:18:36.581Z,11.59
2022-10-04T21:21:02.971Z,11.56
2022-10-04T21:23:33.672Z,11.53
2022-10-04T21:26:18.504Z,11.35
2022-10-04T21:28:44.833Z,11.35
2022-10-04T21:31:11.162Z,11.33
2022-10-04T21:33:37.666Z,11.39
2022-10-04T21:36:04.150Z,11.20
2022-10-04T21:38:30.555Z,11.25
2022-10-04T21:40:56.943Z,11.29
2022-10-04T21:43:23.379Z,11.40
2022-10-04T21:45:49.758Z,11.43
2022-10-04T21:48:16.091Z,11.36
2022-10-04T21:50:43.466Z,11.36
2022-10-04T21:53:09.931Z,11.43
2022-10-04T21:55:36.248Z,11.39
2022-10-04T21:58:02.645Z,11.40
2022-10-04T22:00:28.970Z,11.44
2022-10-04T22:02:55.279Z,11.25
2022-10-04T22:05:21.602Z,11.28
2022-10-04T22:07:47.994Z,11.23
2022-10-04T22:10:14.359Z,11.35
2022-10-04T22:12:40.745Z,11.39
2022-10-04T22:15:07.184Z,11.30
2022-10-04T22:17:33.570Z,11.30
2022-10-04T22:20:00.043Z,11.20
2022-10-04T22:22:27.460Z,11.07
2022-10-04T22:24:53.832Z,11.00
2022-10-04T22:27:20.342Z,10.96
2022-10-04T22:29:46.673Z,10.90
2022-10-04T22:32:14.817Z,10.91
2022-10-04T22:34:41.179Z,10.70
2022-10-04T22:37:09.115Z,10.90
2022-10-04T22:39:35.452Z,10.78
2022-10-04T22:42:01.837Z,10.56
2022-10-04T22:44:35.226Z,10.27
2022-10-04T22:47:01.698Z,10.16
2022-10-04T22:49:29.648Z,9.78
2022-10-04T22:51:56.164Z,9.63
2022-10-04T22:54:23.738Z,9.68
2022-10-04T22:56:50.674Z,9.72
2022-10-04T22:59:17.482Z,9.55
2022-10-04T23:01:43.836Z,9.37
2022-10-04T23:04:23.110Z,9.53
2022-10-04T23:06:49.715Z,9.38
2022-10-04T23:09:16.147Z,9.31
2022-10-04T23:11:42.746Z,9.17
2022-10-04T23:14:09.066Z,9.15
2022-10-04T23:16:35.542Z,9.33
2022-10-04T23:19:08.902Z,9.23
2022-10-04T23:21:35.253Z,9.18
2022-10-04T23:24:05.140Z,9.04
2022-10-04T23:26:36.548Z,8.94
2022-10-04T23:29:05.463Z,9.00
2022-10-04T23:31:31.848Z,9.02
2022-10-04T23:33:58.286Z,9.00
2022-10-04T23:36:24.628Z,8.90
2022-10-04T23:38:52.466Z,8.88
2022-10-04T23:41:18.800Z,8.88
2022-10-04T23:43:45.239Z,8.86
2022-10-04T23:46:12.316Z,9.02
2022-10-04T23:48:38.697Z,8.84
2022-10-04T23:51:05.084Z,8.95
2022-10-04T23:53:32.087Z,8.89
2022-10-04T23:55:58.810Z,8.98
2022-10-04T23:58:26.339Z,9.03
